createdAt,value
2022-12-28T00:01:49.128Z,101207.98
2022-12-28T00:04:21.200Z,101205.01
2022-12-28T00:06:53.150Z,101197.58
2022-12-28T00:09:26.210Z,101198.73
2022-12-28T00:11:57.938Z,101196.46
2022-12-28T00:14:29.689Z,101196.86
2022-12-28T00:17:01.540Z,101196.80
2022-12-28T00:19:33.488Z,101196.81
2022-12-28T00:22:05.362Z,101196.72
2022-12-28T00:24:37.237Z,101190.52
2022-12-28T00:27:08.972Z,101185.88
2022-12-28T00:29:40.699Z,101182.45
2022-12-28T00:32:12.538Z,101180.87
2022-12-28T00:34:44.490Z,101180.63
2022-12-28T00:37:16.185Z,101168.46
2022-12-28T00:39:48.011Z,101172.16
2022-12-28T00:42:22.041Z,101167.41
2022-12-28T00:44:53.934Z,101165.52
2022-12-28T00:47:25.642Z,101170.15
2022-12-28T00:49:57.430Z,101167.20
2022-12-28T00:52:29.216Z,101162.13
2022-12-28T00:55:01.100Z,101161.05
2022-12-28T00:57:33.805Z,101162.27
2022-12-28T01:00:04.447Z,101153.87
2022-12-28T01:02:36.448Z,101161.56
2022-12-28T01:05:10.437Z,101160.13
2022-12-28T01:07:42.167Z,101160.69
2022-12-28T01:10:14.470Z,101164.33
2022-12-28T01:12:46.155Z,101161.96
2022-12-28T01:15:18.322Z,101156.20
2022-12-28T01:17:50.202Z,101150.33
2022-12-28T01:20:21.959Z,101143.99
2022-12-28T01:22:53.691Z,101135.17
2022-12-28T01:25:25.395Z,101126.58
2022-12-28T01:27:57.343Z,101122.45
2022-12-28T01:30:30.305Z,101124.60
2022-12-28T01:33:03.484Z,101116.64
2022-12-28T01:35:35.541Z,101110.63
2022-12-28T01:38:07.247Z,101109.08
2022-12-28T01:40:44.627Z,101108.91
2022-12-28T01:43:29.757Z,101106.36
2022-12-28T01:46:01.838Z,101110.73
2022-12-28T01:48:36.901Z,101106.63
2022-12-28T01:51:09.140Z,101108.40
2022-12-28T01:53:41.302Z,101117.13
2022-12-28T01:56:13.197Z,101119.18
2022-12-28T01:58:45.709Z,101121.09
2022-12-28T02:01:18.133Z,101119.31
2022-12-28T02:03:50.294Z,101112.66
2022-12-28T02:06:23.639Z,101106.33
2022-12-28T02:09:00.024Z,101107.21
2022-12-28T02:11:35.343Z,101110.05
2022-12-28T02:14:08.612Z,101112.40
2022-12-28T02:16:40.656Z,101110.08
2022-12-28T02:19:19.905Z,101096.74
2022-12-28T02:22:05.922Z,101089.68
2022-12-28T02:25:11.660Z,101080.89
2022-12-28T02:27:58.795Z,101075.63
2022-12-28T02:30:34.482Z,101072.89
2022-12-28T02:33:14.754Z,101068.69
2022-12-28T02:35:55.986Z,101065.46
2022-12-28T02:38:31.295Z,101063.33
2022-12-28T02:41:07.929Z,101058.54
2022-12-28T02:43:40.177Z,101055.44
2022-12-28T02:46:37.703Z,101050.55
2022-12-28T02:49:38.528Z,101042.05
2022-12-28T02:52:23.967Z,101049.77
2022-12-28T02:55:27.407Z,101043.57
2022-12-28T02:58:12.354Z,101040.38
2022-12-28T03:00:57.362Z,101038.98
2022-12-28T03:03:38.334Z,101031.34
2022-12-28T03:06:36.808Z,101031.21
2022-12-28T03:09:18.139Z,101032.22
2022-12-28T03:11:57.563Z,101027.42
2022-12-28T03:14:36.162Z,101023.39
2022-12-28T03:17:28.286Z,101023.97
2022-12-28T03:20:25.389Z,101022.42
2022-12-28T03:23:17.082Z,101023.45
2022-12-28T03:26:07.877Z,101030.92
2022-12-28T03:29:02.822Z,101023.48
2022-12-28T03:31:36.006Z,101016.19
2022-12-28T03:34:11.450Z,101004.11
2022-12-28T03:36:54.637Z,100988.86
2022-12-28T03:39:37.656Z,100988.09
2022-12-28T03:42:35.533Z,100984.47
2022-12-28T03:45:46.252Z,100982.09
2022-12-28T03:48:12.591Z,100981.80
2022-12-28T03:50:48.028Z,100979.08
2022-12-28T03:53:25.851Z,100978.20
2022-12-28T03:56:10.381Z,100972.76
2022-12-28T03:58:40.706Z,100967.85
2022-12-28T04:01:13.467Z,100962.88
2022-12-28T04:03:45.493Z,100958.61
2022-12-28T04:06:19.149Z,100953.45
2022-12-28T04:08:51.240Z,100950.31
2022-12-28T04:11:23.310Z,100948.52
2022-12-28T04:13:57.344Z,100935.93
2022-12-28T04:16:31.254Z,100934.09
2022-12-28T04:19:03.736Z,100934.32
2022-12-28T04:21:35.627Z,100931.58
2022-12-28T04:24:07.963Z,100930.69
2022-12-28T04:26:41.174Z,100922.11
2022-12-28T04:29:13.457Z,100912.48
2022-12-28T04:31:52.094Z,100908.02
2022-12-28T04:34:25.262Z,100904.66
2022-12-28T04:37:01.326Z,100900.15
2022-12-28T04:39:55.064Z,100890.16
2022-12-28T04:42:25.722Z,100880.89
2022-12-28T04:44:57.432Z,100875.70
2022-12-28T04:47:29.331Z,100871.98
2022-12-28T04:50:01.640Z,100878.25
2022-12-28T04:52:34.715Z,100884.70
2022-12-28T04:55:07.230Z,100889.53
2022-12-28T04:57:58.883Z,100891.49
2022-12-28T05:00:30.653Z,100884.01
2022-12-28T05:03:03.460Z,100881.16
2022-12-28T05:05:37.790Z,100871.46
2022-12-28T05:08:08.354Z,100868.02
2022-12-28T05:10:40.289Z,100862.47
2022-12-28T05:13:12.235Z,100858.58
2022-12-28T05:15:43.980Z,100853.61
2022-12-28T05:18:16.133Z,100851.32
2022-12-28T05:20:47.836Z,100849.39
2022-12-28T05:23:19.680Z,100846.57
2022-12-28T05:25:56.868Z,100843.00
2022-12-28T05:28:28.848Z,100839.98
2022-12-28T05:31:04.277Z,100836.65
2022-12-28T05:33:37.428Z,100831.64
2022-12-28T05:36:11.651Z,100828.42
2022-12-28T05:38:43.678Z,100823.60
2022-12-28T05:41:18.281Z,100825.64
2022-12-28T05:43:50.501Z,100816.68
2022-12-28T05:46:25.089Z,100812.46
2022-12-28T05:48:56.968Z,100810.17
2022-12-28T05:51:30.564Z,100803.05
2022-12-28T05:54:04.287Z,100802.38
2022-12-28T05:56:36.225Z,100801.84
2022-12-28T05:59:09.004Z,100797.21
2022-12-28T06:01:42.685Z,100794.01
2022-12-28T06:04:18.444Z,100799.92
2022-12-28T06:06:51.069Z,100799.19
2022-12-28T06:09:21.503Z,100793.82
2022-12-28T06:11:53.312Z,100792.93
2022-12-28T06:14:25.379Z,100789.86
2022-12-28T06:16:57.343Z,100788.20
2022-12-28T06:19:29.208Z,100778.55
2022-12-28T06:22:01.047Z,100778.20
2022-12-28T06:24:32.820Z,100774.79
2022-12-28T06:27:04.519Z,100767.47
2022-12-28T06:29:36.413Z,100766.39
2022-12-28T06:32:08.327Z,100776.75
2022-12-28T06:34:40.041Z,100770.16
2022-12-28T06:37:11.824Z,100769.44
2022-12-28T06:39:43.504Z,100765.55
2022-12-28T06:42:15.370Z,100764.65
2022-12-28T06:44:47.619Z,100764.24
2022-12-28T06:47:19.899Z,100764.45
2022-12-28T06:49:51.583Z,100761.93
2022-12-28T06:52:23.346Z,100759.66
2022-12-28T06:54:55.081Z,100751.96
2022-12-28T06:57:26.911Z,100754.30
2022-12-28T06:59:58.638Z,100746.28
2022-12-28T07:02:30.493Z,100746.98
2022-12-28T07:05:02.428Z,100749.63
2022-12-28T07:07:34.237Z,100744.98
2022-12-28T07:10:06.732Z,100742.66
2022-12-28T07:12:38.637Z,100746.98
2022-12-28T07:15:12.308Z,100743.56
2022-12-28T07:17:44.074Z,100745.55
2022-12-28T07:20:15.961Z,100744.85
2022-12-28T07:22:47.733Z,100741.09
2022-12-28T07:25:19.628Z,100744.66
2022-12-28T07:27:51.347Z,100737.16
2022-12-28T07:30:23.028Z,100731.63
2022-12-28T07:32:55.013Z,100729.88
2022-12-28T07:35:26.905Z,100727.74
2022-12-28T07:37:58.596Z,100718.60
2022-12-28T07:40:30.357Z,100716.81
2022-12-28T07:43:03.347Z,100713.97
2022-12-28T07:45:35.331Z,100719.33
2022-12-28T07:48:07.382Z,100719.16
2022-12-28T07:50:39.509Z,100712.58
2022-12-28T07:53:11.206Z,100706.89
2022-12-28T07:55:43.640Z,100707.63
2022-12-28T07:58:15.380Z,100704.41
2022-12-28T08:00:47.526Z,100704.39
2022-12-28T08:03:19.332Z,100702.63
2022-12-28T08:05:51.071Z,100700.69
2022-12-28T08:08:22.748Z,100694.09
2022-12-28T08:10:55.085Z,100691.06
2022-12-28T08:13:26.846Z,100690.52
2022-12-28T08:15:59.007Z,100688.22
2022-12-28T08:18:31.832Z,100685.36
2022-12-28T08:21:03.302Z,100685.56
2022-12-28T08:23:35.340Z,100680.17
2022-12-28T08:26:12.935Z,100678.63
2022-12-28T08:28:46.361Z,100674.16
2022-12-28T08:31:20.857Z,100669.53
2022-12-28T08:33:53.752Z,100664.89
2022-12-28T08:36:26.099Z,100656.52
2022-12-28T08:38:58.917Z,100662.07
2022-12-28T08:41:31.806Z,100660.27
2022-12-28T08:44:04.681Z,100662.02
2022-12-28T08:46:36.541Z,100656.39
2022-12-28T08:49:08.398Z,100651.21
2022-12-28T08:51:41.935Z,100647.27
2022-12-28T08:54:15.034Z,100642.10
2022-12-28T08:56:47.505Z,100640.68
2022-12-28T08:59:20.876Z,100638.67
2022-12-28T09:01:52.824Z,100635.48
2022-12-28T09:04:25.187Z,100634.58
2022-12-28T09:06:56.983Z,100631.02
2022-12-28T09:09:29.268Z,100631.94
2022-12-28T09:12:00.965Z,100629.06
2022-12-28T09:14:33.116Z,100627.11
2022-12-28T09:17:05.259Z,100624.63
2022-12-28T09:19:37.041Z,100616.39
2022-12-28T09:22:08.891Z,100610.12
2022-12-28T09:24:40.589Z,100606.02
2022-12-28T09:27:12.645Z,100606.58
2022-12-28T09:29:45.154Z,100604.23
2022-12-28T09:32:16.977Z,100591.55
2022-12-28T09:34:48.818Z,100588.52
2022-12-28T09:37:20.564Z,100583.67
2022-12-28T09:39:54.579Z,100588.69
2022-12-28T09:42:31.445Z,100586.19
2022-12-28T09:45:06.344Z,100586.19
2022-12-28T09:47:42.003Z,100575.44
2022-12-28T09:50:32.401Z,100568.64
2022-12-28T09:53:22.788Z,100570.08
2022-12-28T09:56:01.925Z,100564.33
2022-12-28T09:58:37.637Z,100561.48
2022-12-28T10:01:15.560Z,100551.80
2022-12-28T10:03:48.686Z,100550.00
2022-12-28T10:06:25.274Z,100554.82
2022-12-28T10:09:01.070Z,100544.09
2022-12-28T10:11:40.427Z,100539.08
2022-12-28T10:14:20.581Z,100534.58
2022-12-28T10:16:52.743Z,100534.40
2022-12-28T10:19:27.567Z,100538.36
2022-12-28T10:22:02.902Z,100522.79
2022-12-28T10:24:34.920Z,100518.11
2022-12-28T10:27:08.643Z,100515.05
2022-12-28T10:29:42.713Z,100515.23
2022-12-28T10:32:14.416Z,100518.27
2022-12-28T10:34:58.959Z,100516.48
2022-12-28T10:37:35.990Z,100506.63
2022-12-28T10:40:19.380Z,100501.06
2022-12-28T10:42:55.107Z,100493.91
2022-12-28T10:45:37.219Z,100485.42
2022-12-28T10:48:16.491Z,100478.23
2022-12-28T10:50:54.750Z,100471.79
2022-12-28T10:53:33.115Z,100474.85
2022-12-28T10:56:08.318Z,100469.64
2022-12-28T10:58:41.284Z,100462.66
2022-12-28T11:01:20.248Z,100455.45
2022-12-28T11:04:05.364Z,100444.13
2022-12-28T11:06:52.503Z,100435.15
2022-12-28T11:09:27.190Z,100431.16
2022-12-28T11:12:18.723Z,100426.17
2022-12-28T11:14:52.396Z,100423.87
2022-12-28T11:17:26.656Z,100419.72
2022-12-28T11:20:04.558Z,100416.13
2022-12-28T11:22:36.863Z,100413.25
2022-12-28T11:25:10.143Z,100405.46
2022-12-28T11:27:41.778Z,100408.14
2022-12-28T11:30:18.249Z,100408.86
2022-12-28T11:32:54.569Z,100408.94
2022-12-28T11:35:30.659Z,100408.69
2022-12-28T11:38:05.831Z,100404.95
2022-12-28T11:40:56.702Z,100390.39
2022-12-28T11:43:51.833Z,100390.67
2022-12-28T11:46:56.935Z,100391.06
2022-12-28T11:49:32.434Z,100388.77
2022-12-28T11:52:44.503Z,100383.71
2022-12-28T11:56:06.770Z,100371.67
2022-12-28T11:58:48.192Z,100363.20
2022-12-28T12:01:50.076Z,100366.64
2022-12-28T12:04:42.962Z,100361.69
2022-12-28T12:07:30.746Z,100357.51
2022-12-28T12:10:31.667Z,100354.74
2022-12-28T12:13:24.864Z,100354.91
2022-12-28T12:16:00.223Z,100348.67
2022-12-28T12:18:36.153Z,100341.50
2022-12-28T12:21:15.430Z,100336.11
2022-12-28T12:23:51.723Z,100329.83
2022-12-28T12:26:28.659Z,100324.61
2022-12-28T12:29:07.508Z,100327.18
2022-12-28T12:31:44.336Z,100328.80
2022-12-28T12:34:22.103Z,100320.73
2022-12-28T12:37:11.349Z,100319.95
2022-12-28T12:39:56.173Z,100310.01
2022-12-28T12:42:38.678Z,100305.20
2022-12-28T12:45:23.065Z,100299.10
2022-12-28T12:48:11.381Z,100304.67
2022-12-28T12:51:07.951Z,100300.35
2022-12-28T12:53:52.557Z,100298.53
2022-12-28T12:56:37.214Z,100294.52
2022-12-28T12:59:26.973Z,100284.83
2022-12-28T13:02:09.054Z,100289.47
2022-12-28T13:04:43.167Z,100283.05
2022-12-28T13:07:21.515Z,100279.47
2022-12-28T13:09:55.767Z,100282.83
2022-12-28T13:12:27.972Z,100279.06
2022-12-28T13:15:05.980Z,100274.92
2022-12-28T13:17:41.061Z,100275.95
2022-12-28T13:20:21.822Z,100281.84
2022-12-28T13:22:54.729Z,100277.46
2022-12-28T13:25:32.564Z,100272.19
2022-12-28T13:28:06.775Z,100274.29
2022-12-28T13:30:40.763Z,100274.80
2022-12-28T13:33:23.279Z,100271.96
2022-12-28T13:36:11.790Z,100274.88
2022-12-28T13:38:43.557Z,100276.02
2022-12-28T13:41:24.898Z,100272.52
2022-12-28T13:44:21.975Z,100276.71
2022-12-28T13:46:57.618Z,100266.28
2022-12-28T13:49:32.376Z,100270.71
2022-12-28T13:52:07.175Z,100269.35
2022-12-28T13:54:41.030Z,100273.98
2022-12-28T14:00:11.556Z,100265.05
2022-12-28T14:02:44.218Z,100263.17
2022-12-28T14:05:18.582Z,100267.19
2022-12-28T14:07:51.659Z,100258.27
2022-12-28T14:10:24.283Z,100253.83
2022-12-28T14:12:57.491Z,100251.06
2022-12-28T14:15:29.579Z,100249.75
2022-12-28T14:18:01.778Z,100250.09
2022-12-28T14:20:33.980Z,100255.69
2022-12-28T14:23:22.800Z,100259.83
2022-12-28T14:25:56.178Z,100258.85
2022-12-28T14:28:33.006Z,100255.15
2022-12-28T14:31:07.392Z,100249.88
2022-12-28T14:33:44.885Z,100252.11
2022-12-28T14:36:23.891Z,100255.02
2022-12-28T14:39:04.236Z,100258.02
2022-12-28T14:41:42.043Z,100257.14
2022-12-28T14:44:21.683Z,100258.38
2022-12-28T14:46:54.417Z,100261.73
2022-12-28T14:49:33.941Z,100260.33
2022-12-28T14:52:37.682Z,100256.73
2022-12-28T14:55:22.505Z,100260.73
2022-12-28T14:57:59.150Z,100251.23
2022-12-28T15:00:33.525Z,100257.81
2022-12-28T15:03:18.917Z,100253.44
2022-12-28T15:05:54.365Z,100254.52
2022-12-28T15:08:28.221Z,100251.62
2022-12-28T15:11:01.255Z,100249.64
2022-12-28T15:13:32.983Z,100256.81
2022-12-28T15:16:06.015Z,100246.20
2022-12-28T15:18:45.067Z,100251.96
2022-12-28T15:21:19.236Z,100255.49
2022-12-28T15:23:52.804Z,100258.14
2022-12-28T15:26:27.840Z,100254.45
2022-12-28T15:28:59.598Z,100254.49
2022-12-28T15:31:31.539Z,100255.67
2022-12-28T15:34:03.807Z,100253.23
2022-12-28T15:36:35.513Z,100251.25
2022-12-28T15:39:07.470Z,100252.16
2022-12-28T15:41:48.205Z,100247.45
2022-12-28T15:44:21.733Z,100248.71
2022-12-28T15:46:53.427Z,100247.99
2022-12-28T15:49:25.185Z,100254.13
2022-12-28T15:51:57.131Z,100258.90
2022-12-28T15:54:28.890Z,100255.47
2022-12-28T15:57:00.705Z,100256.06
2022-12-28T15:59:32.569Z,100255.56
2022-12-28T16:02:04.555Z,100254.00
2022-12-28T16:04:36.925Z,100255.79
2022-12-28T16:07:08.805Z,100255.45
2022-12-28T16:09:40.621Z,100249.73
2022-12-28T16:12:17.044Z,100254.21
2022-12-28T16:14:49.571Z,100248.73
2022-12-28T16:17:21.491Z,100246.89
2022-12-28T16:19:53.271Z,100250.14
2022-12-28T16:22:25.467Z,100251.76
2022-12-28T16:24:57.434Z,100251.56
2022-12-28T16:27:29.280Z,100248.18
2022-12-28T16:30:01.069Z,100251.03
2022-12-28T16:32:32.987Z,100252.17
2022-12-28T16:35:05.554Z,100255.23
2022-12-28T16:37:37.726Z,100252.77
2022-12-28T16:40:12.038Z,100254.19
2022-12-28T16:42:45.729Z,100250.73
2022-12-28T16:45:18.484Z,100251.98
2022-12-28T16:47:50.298Z,100259.23
2022-12-28T16:50:22.006Z,100259.83
2022-12-28T16:52:54.081Z,100259.34
2022-12-28T16:55:25.854Z,100257.00
2022-12-28T16:57:57.659Z,100260.97
2022-12-28T17:00:29.451Z,100254.52
2022-12-28T17:03:01.420Z,100247.13
2022-12-28T17:05:36.415Z,100248.92
2022-12-28T17:08:08.791Z,100250.08
2022-12-28T17:10:43.628Z,100247.74
2022-12-28T17:13:16.259Z,100243.23
2022-12-28T17:15:49.135Z,100244.27
2022-12-28T17:18:19.330Z,100248.49
2022-12-28T17:20:51.479Z,100237.14
2022-12-28T17:23:23.656Z,100239.10
2022-12-28T17:25:57.106Z,100237.61
2022-12-28T17:28:29.397Z,100234.87
2022-12-28T17:31:09.151Z,100240.23
2022-12-28T17:33:44.723Z,100240.98
2022-12-28T17:36:17.170Z,100242.41
2022-12-28T17:38:49.078Z,100242.61
2022-12-28T17:41:23.303Z,100245.40
2022-12-28T17:43:57.106Z,100239.30
2022-12-28T17:46:31.009Z,100243.07
2022-12-28T17:49:02.974Z,100244.85
2022-12-28T17:51:36.498Z,100245.73
2022-12-28T17:54:11.858Z,100246.90
2022-12-28T17:56:45.429Z,100244.23
2022-12-28T17:59:18.294Z,100244.38
2022-12-28T18:01:48.675Z,100247.77
2022-12-28T18:04:20.462Z,100247.11
2022-12-28T18:06:52.462Z,100244.36
2022-12-28T18:09:27.863Z,100241.02
2022-12-28T18:12:00.349Z,100239.92
2022-12-28T18:14:32.502Z,100242.83
2022-12-28T18:17:04.311Z,100241.24
2022-12-28T18:19:36.077Z,100238.92
2022-12-28T18:22:07.994Z,100229.48
2022-12-28T18:24:39.693Z,100230.48
2022-12-28T18:27:11.499Z,100226.80
2022-12-28T18:29:44.706Z,100239.52
2022-12-28T18:32:16.501Z,100233.52
2022-12-28T18:34:48.751Z,100235.06
2022-12-28T18:37:20.984Z,100233.11
2022-12-28T18:39:52.768Z,100227.39
2022-12-28T18:42:25.412Z,100223.71
2022-12-28T18:44:58.113Z,100229.01
2022-12-28T18:47:32.762Z,100225.17
2022-12-28T18:50:04.921Z,100219.23
2022-12-28T18:52:36.697Z,100219.01
2022-12-28T18:55:09.940Z,100219.02
2022-12-28T18:57:41.747Z,100213.45
2022-12-28T19:00:15.704Z,100212.34
2022-12-28T19:02:51.290Z,100213.45
2022-12-28T19:05:23.333Z,100212.89
2022-12-28T19:07:55.394Z,100208.66
2022-12-28T19:10:27.285Z,100206.60
2022-12-28T19:12:59.020Z,100206.04
2022-12-28T19:15:31.061Z,100207.00
2022-12-28T19:18:02.925Z,100203.38
2022-12-28T19:20:34.757Z,100209.02
2022-12-28T19:23:06.435Z,100208.97
2022-12-28T19:25:39.073Z,100202.11
2022-12-28T19:28:10.835Z,100201.55
2022-12-28T19:30:42.798Z,100204.14
2022-12-28T19:33:14.600Z,100199.23
2022-12-28T19:35:46.645Z,100202.79
2022-12-28T19:38:19.150Z,100200.05
2022-12-28T19:40:51.056Z,100202.97
2022-12-28T19:43:23.019Z,100199.98
2022-12-28T19:46:01.986Z,100205.56
2022-12-28T19:48:33.938Z,100198.47
2022-12-28T19:51:06.146Z,100195.45
2022-12-28T19:53:38.320Z,100195.13
2022-12-28T19:56:12.730Z,100194.00
2022-12-28T19:58:45.563Z,100188.80
2022-12-28T20:01:19.690Z,100188.00
2022-12-28T20:03:53.505Z,100185.73
2022-12-28T20:06:27.616Z,100191.18
2022-12-28T20:09:01.630Z,100185.98
2022-12-28T20:11:34.133Z,100189.05
2022-12-28T20:14:07.311Z,100180.87
2022-12-28T20:16:39.369Z,100175.88
2022-12-28T20:19:12.979Z,100174.83
2022-12-28T20:21:45.232Z,100167.46
2022-12-28T20:24:17.873Z,100165.44
2022-12-28T20:26:50.239Z,100168.15
2022-12-28T20:29:22.342Z,100165.54
2022-12-28T20:31:54.728Z,100158.30
2022-12-28T20:34:27.519Z,100153.39
2022-12-28T20:36:59.343Z,100151.17
2022-12-28T20:39:31.511Z,100153.38
2022-12-28T20:42:21.214Z,100149.14
2022-12-28T20:44:53.574Z,100150.86
2022-12-28T20:47:25.557Z,100150.21
2022-12-28T20:49:57.813Z,100153.39
2022-12-28T20:52:29.724Z,100148.54
2022-12-28T20:55:01.806Z,100143.18
2022-12-28T20:57:33.833Z,100142.38
2022-12-28T21:00:06.889Z,100143.55
2022-12-28T21:02:38.775Z,100140.48
2022-12-28T21:05:12.173Z,100136.33
2022-12-28T21:07:44.330Z,100136.50
2022-12-28T21:10:17.053Z,100135.13
2022-12-28T21:12:49.247Z,100131.90
2022-12-28T21:15:21.164Z,100126.11
2022-12-28T21:17:53.231Z,100119.84
2022-12-28T21:20:26.796Z,100119.23
2022-12-28T21:22:58.789Z,100120.23
2022-12-28T21:25:33.589Z,100113.15
2022-12-28T21:28:06.245Z,100114.46
2022-12-28T21:30:38.070Z,100110.02
2022-12-28T21:33:10.897Z,100109.41
2022-12-28T21:35:42.866Z,100104.10
2022-12-28T21:38:14.676Z,100095.68
2022-12-28T21:40:46.721Z,100095.98
2022-12-28T21:43:18.391Z,100093.25
2022-12-28T21:46:01.904Z,100090.12
2022-12-28T21:48:35.300Z,100089.76
2022-12-28T21:51:29.214Z,100079.34
2022-12-28T21:54:03.345Z,100077.98
2022-12-28T21:56:36.423Z,100079.81
2022-12-28T21:59:09.163Z,100072.52
2022-12-28T22:02:00.101Z,100074.59
2022-12-28T22:04:50.191Z,100070.88
2022-12-28T22:07:23.290Z,100069.55
2022-12-28T22:10:18.073Z,100068.14
2022-12-28T22:12:50.338Z,100065.04
2022-12-28T22:15:42.124Z,100067.27
2022-12-28T22:18:52.645Z,100071.23
2022-12-28T22:21:13.555Z,100071.39
2022-12-28T22:23:45.425Z,100066.49
2022-12-28T22:26:17.075Z,100069.46
2022-12-28T22:28:48.783Z,100064.90
2022-12-28T22:31:20.521Z,100065.91
2022-12-28T22:33:53.455Z,100061.45
2022-12-28T22:36:25.240Z,100065.12
2022-12-28T22:38:57.118Z,100062.73
2022-12-28T22:41:28.856Z,100060.60
2022-12-28T22:44:01.002Z,100051.77
2022-12-28T22:46:32.792Z,100054.34
2022-12-28T22:49:04.694Z,100047.86
2022-12-28T22:51:36.457Z,100050.10
2022-12-28T22:54:08.313Z,100047.44
2022-12-28T22:56:39.962Z,100047.87
2022-12-28T22:59:15.399Z,100039.70
2022-12-28T23:01:48.265Z,100039.99
2022-12-28T23:04:20.555Z,100035.40
2022-12-28T23:06:52.401Z,100029.16
2022-12-28T23:09:24.315Z,100026.45
2022-12-28T23:11:56.384Z,100014.38
2022-12-28T23:14:46.899Z,100009.50
2022-12-28T23:17:19.112Z,100003.75
2022-12-28T23:20:08.537Z,99998.27
2022-12-28T23:23:06.658Z,99986.02
2022-12-28T23:25:59.413Z,99980.53
2022-12-28T23:28:31.397Z,99973.90
2022-12-28T23:31:03.732Z,99964.98
2022-12-28T23:33:34.464Z,99963.04
2022-12-28T23:36:07.621Z,99955.55
2022-12-28T23:38:39.463Z,99953.31
2022-12-28T23:41:29.245Z,99950.84
2022-12-28T23:44:01.434Z,99953.93
2022-12-28T23:46:33.661Z,99953.75
2022-12-28T23:49:05.499Z,99950.92
2022-12-28T23:51:37.885Z,99960.23
2022-12-28T23:54:11.147Z,99965.19
2022-12-28T23:56:47.403Z,99964.48
2022-12-28T23:59:20.411Z,99954.44
